Time;durP1;ratioP1;P1;durP2;ratioP2;P2;SDS_P1;SDS_P2;PMS_P1;PMS_P2;Temp;Humidity;BMP_temperature;BMP_pressure;BME280_temperature;BME280_humidity;BME280_pressure;Samples;Min_cycle;Max_cycle;Signal;HPM_P1;HPM_P2
2022/03/27 00:01:06;;;;;;;;;49.25;39.50;;;;;13.02;46.26;102523.03;5068037;28;45548;-66
2022/03/27 00:03:32;;;;;;;;;53.25;42.25;;;;;12.97;46.25;102523.41;5082089;28;46981;-68
2022/03/27 00:05:58;;;;;;;;;41.75;34.50;;;;;12.98;45.03;102522.44;5069427;27;45383;-66
2022/03/27 00:08:23;;;;;;;;;50.25;40.75;;;;;12.94;46.37;102526.38;5081200;28;45403;-66
2022/03/27 00:13:33;;;;;;;;;52.25;40.50;;;;;12.91;46.37;102515.72;5062787;28;45404;-66
2022/03/27 00:15:59;;;;;;;;;53.50;38.50;;;;;12.87;46.35;102515.06;5075921;28;45554;-66
2022/03/27 00:18:24;;;;;;;;;46.75;37.25;;;;;12.91;46.88;102526.63;5066375;28;45510;-67
2022/03/27 00:20:51;;;;;;;;;55.00;41.50;;;;;12.88;46.97;102515.94;5075498;28;45480;-67
2022/03/27 00:23:16;;;;;;;;;54.00;43.50;;;;;12.75;47.55;102520.63;5061788;28;48331;-67
2022/03/27 00:25:43;;;;;;;;;48.50;35.50;;;;;12.72;47.90;102515.41;5077364;28;45317;-67
2022/03/27 00:28:08;;;;;;;;;53.50;42.00;;;;;12.65;48.00;102520.47;5074262;27;45295;-67
2022/03/27 00:30:34;;;;;;;;;49.25;40.00;;;;;12.64;47.94;102521.44;5067516;27;45380;-67
2022/03/27 00:33:00;;;;;;;;;51.25;39.00;;;;;12.62;47.74;102520.72;5074920;28;47988;-67
2022/03/27 00:35:25;;;;;;;;;52.25;41.75;;;;;12.59;47.91;102525.53;5075361;28;45430;-67
2022/03/27 00:37:52;;;;;;;;;56.25;42.75;;;;;12.50;48.13;102524.38;5065826;28;45310;-66
2022/03/27 00:40:18;;;;;;;;;53.50;39.50;;;;;12.51;48.72;102517.06;5069967;28;45405;-66
2022/03/27 00:42:43;;;;;;;;;50.50;40.00;;;;;12.42;48.42;102522.22;5066040;28;45723;-65
2022/03/27 00:45:09;;;;;;;;;50.25;36.25;;;;;12.42;47.96;102519.50;5068472;28;47638;-67
2022/03/27 00:47:34;;;;;;;;;49.25;36.50;;;;;12.30;49.24;102523.19;5070331;28;45314;-67
2022/03/27 00:49:59;;;;;;;;;53.75;40.25;;;;;12.23;49.06;102508.28;5068110;28;45484;-67
2022/03/27 00:52:25;;;;;;;;;58.25;43.75;;;;;12.23;49.21;102519.19;5070734;28;47929;-67
2022/03/27 00:54:50;;;;;;;;;56.00;42.75;;;;;12.14;49.92;102517.13;5065776;28;45591;-67
2022/03/27 00:57:15;;;;;;;;;57.50;43.25;;;;;12.19;49.32;102516.81;5073798;28;45335;-66
2022/03/27 00:59:41;;;;;;;;;55.00;40.00;;;;;12.13;49.49;102511.81;5076560;28;45224;-67
2022/03/27 01:02:06;;;;;;;;;54.00;42.50;;;;;12.04;49.91;102502.50;5076997;28;47119;-66
2022/03/27 01:04:32;;;;;;;;;54.25;41.50;;;;;12.03;49.90;102511.63;5071377;28;45527;-67
2022/03/27 01:06:57;;;;;;;;;57.00;44.00;;;;;11.92;50.34;102504.25;5074171;27;45286;-67
2022/03/27 01:09:39;;;;;;;;;57.25;41.75;;;;;11.90;50.05;102505.38;5075523;28;45557;-67
2022/03/27 01:12:22;;;;;;;;;54.25;42.50;;;;;11.91;50.95;102513.41;5065815;27;45543;-65
2022/03/27 01:14:51;;;;;;;;;61.50;45.25;;;;;11.78;50.78;102506.25;5068644;28;45504;-66
2022/03/27 01:17:23;;;;;;;;;57.75;44.25;;;;;11.81;50.90;102515.09;5073932;28;45271;-67
2022/03/27 01:19:54;;;;;;;;;52.50;39.50;;;;;11.74;51.11;102502.91;5069321;27;45487;-65
2022/03/27 01:22:21;;;;;;;;;56.25;42.75;;;;;11.74;51.42;102510.19;5066047;28;47023;-66
2022/03/27 01:24:49;;;;;;;;;55.00;43.75;;;;;11.71;51.18;102511.25;5083458;27;46126;-66
2022/03/27 01:27:15;;;;;;;;;64.75;44.00;;;;;11.66;51.45;102492.56;5066762;28;45396;-66
2022/03/27 01:29:40;;;;;;;;;55.75;42.75;;;;;11.74;51.37;102499.28;5089683;27;45605;-66
2022/03/27 01:32:08;;;;;;;;;56.50;43.25;;;;;11.69;51.42;102496.88;5074500;28;45410;-67
2022/03/27 01:34:34;;;;;;;;;54.75;44.00;;;;;11.56;51.93;102491.47;5068691;28;45431;-67
2022/03/27 01:37:08;;;;;;;;;52.00;42.25;;;;;11.63;51.34;102497.34;5076838;28;45412;-67
2022/03/27 01:39:34;;;;;;;;;62.50;44.00;;;;;11.61;51.39;102492.03;5080955;27;45562;-65
2022/03/27 01:41:59;;;;;;;;;52.50;41.75;;;;;11.60;51.57;102482.13;5074684;28;46992;-66
2022/03/27 01:44:25;;;;;;;;;55.00;41.50;;;;;11.64;51.16;102489.06;5069444;28;45440;-65
2022/03/27 01:46:50;;;;;;;;;56.00;45.00;;;;;11.70;51.62;102490.47;5074309;28;45338;-65
2022/03/27 01:49:17;;;;;;;;;52.50;40.00;;;;;11.74;51.21;102472.97;5067235;28;45456;-65
2022/03/27 01:51:42;;;;;;;;;57.00;39.75;;;;;11.73;51.15;102475.75;5074049;27;46021;-65
2022/03/27 01:54:09;;;;;;;;;52.50;40.00;;;;;11.76;51.14;102471.00;5067053;28;45405;-65
2022/03/27 01:56:37;;;;;;;;;52.50;41.00;;;;;11.74;50.97;102464.78;5072940;27;45409;-65
2022/03/27 01:59:04;;;;;;;;;48.75;39.00;;;;;11.68;51.57;102463.38;5065149;28;45576;-65
2022/03/27 02:01:30;;;;;;;;;49.00;38.50;;;;;11.65;51.82;102473.59;5069044;28;47536;-66
2022/03/27 02:03:55;;;;;;;;;52.50;41.25;;;;;11.72;51.02;102464.00;5065987;28;45361;-66
2022/03/27 02:06:23;;;;;;;;;54.75;40.50;;;;;11.75;50.55;102462.94;5080367;28;45323;-66
2022/03/27 02:08:49;;;;;;;;;50.00;37.75;;;;;11.79;50.76;102461.72;5084671;28;45358;-65
2022/03/27 02:11:15;;;;;;;;;48.00;39.00;;;;;11.73;51.34;102454.84;5075444;28;45476;-66
2022/03/27 02:13:40;;;;;;;;;52.25;38.75;;;;;11.66;51.67;102465.34;5068110;28;45360;-65
2022/03/27 02:16:06;;;;;;;;;48.75;37.25;;;;;11.68;51.55;102462.50;5072066;28;45335;-66
2022/03/27 02:18:32;;;;;;;;;52.75;40.00;;;;;11.64;51.52;102450.06;5077697;28;45321;-66
2022/03/27 02:20:58;;;;;;;;;52.75;42.00;;;;;11.63;51.68;102454.66;5068310;28;45604;-67
2022/03/27 02:23:24;;;;;;;;;52.50;41.00;;;;;11.65;52.07;102465.44;5075747;28;45327;-66
2022/03/27 02:25:50;;;;;;;;;48.25;39.00;;;;;11.63;51.62;102460.09;5068242;28;45217;-66
2022/03/27 02:28:16;;;;;;;;;49.50;36.75;;;;;11.69;51.25;102456.03;5079860;27;45256;-66
2022/03/27 02:30:42;;;;;;;;;47.00;33.75;;;;;11.65;51.58;102452.69;5081273;27;45394;-67
2022/03/27 02:33:08;;;;;;;;;53.50;40.00;;;;;11.66;52.48;102459.00;5069228;28;45605;-66
2022/03/27 02:35:34;;;;;;;;;53.25;40.25;;;;;11.63;51.88;102472.84;5076268;28;45461;-66
2022/03/27 02:38:04;;;;;;;;;53.75;38.75;;;;;11.58;52.05;102467.75;5072242;28;45404;-66
2022/03/27 02:40:31;;;;;;;;;46.75;39.75;;;;;11.53;52.36;102463.63;5076991;28;47250;-66
2022/03/27 02:42:59;;;;;;;;;44.75;36.25;;;;;11.47;52.31;102462.19;5066698;27;45342;-65
2022/03/27 02:45:26;;;;;;;;;49.00;37.25;;;;;11.51;52.34;102460.13;5071346;28;45513;-66
2022/03/27 02:47:51;;;;;;;;;41.00;35.00;;;;;11.49;52.29;102465.69;5067841;27;45489;-66
2022/03/27 02:50:17;;;;;;;;;49.00;38.50;;;;;11.44;52.39;102458.84;5069861;28;47156;-66
2022/03/27 02:52:42;;;;;;;;;42.25;35.50;;;;;11.41;52.64;102470.81;5072926;28;45471;-66
2022/03/27 02:55:08;;;;;;;;;51.25;38.25;;;;;11.38;52.64;102465.63;5069894;28;45396;-66
2022/03/27 02:57:33;;;;;;;;;30.50;29.00;;;;;11.35;53.03;102463.13;5070139;28;45686;-66
2022/03/27 02:59:59;;;;;;;;;48.50;36.50;;;;;11.35;52.93;102465.84;5070318;28;48454;-65
2022/03/27 03:02:24;;;;;;;;;45.75;34.25;;;;;11.35;52.46;102462.25;5064237;28;45341;-66
2022/03/27 03:04:50;;;;;;;;;53.75;33.75;;;;;11.29;52.92;102472.59;5070976;28;45334;-65
2022/03/27 03:07:15;;;;;;;;;46.50;37.00;;;;;11.26;53.39;102464.66;5073809;28;45244;-66
2022/03/27 03:09:41;;;;;;;;;42.00;36.00;;;;;11.26;53.36;102467.38;5078103;28;45674;-66
2022/03/27 03:12:07;;;;;;;;;44.75;37.75;;;;;11.24;52.90;102457.59;5072869;28;45209;-65
2022/03/27 03:14:33;;;;;;;;;43.00;37.50;;;;;11.27;53.24;102468.25;5066357;28;45272;-65
2022/03/27 03:17:00;;;;;;;;;47.25;35.25;;;;;11.20;53.14;102469.66;5072550;28;45577;-65
2022/03/27 03:19:25;;;;;;;;;46.75;37.00;;;;;11.16;53.21;102468.16;5068204;28;46655;-66
2022/03/27 03:21:51;;;;;;;;;47.25;33.50;;;;;11.14;53.29;102462.81;5062438;28;45453;-66
2022/03/27 03:24:16;;;;;;;;;45.75;37.25;;;;;11.10;53.64;102469.47;5064096;28;45743;-66
2022/03/27 03:26:41;;;;;;;;;46.50;36.50;;;;;11.00;54.06;102459.34;5065332;28;45551;-66
2022/03/27 03:29:07;;;;;;;;;43.75;36.25;;;;;11.02;53.85;102473.72;5087015;27;46137;-66
2022/03/27 03:31:32;;;;;;;;;53.75;36.50;;;;;11.07;53.17;102472.41;5073360;28;45335;-66
2022/03/27 03:33:58;;;;;;;;;39.50;33.50;;;;;11.06;53.18;102464.34;5063981;28;45733;-66
2022/03/27 03:36:23;;;;;;;;;38.25;34.75;;;;;11.11;53.73;102463.03;5073950;28;45438;-66
2022/03/27 03:38:49;;;;;;;;;43.50;34.50;;;;;11.06;53.43;102477.94;5063392;28;45564;-66
2022/03/27 03:41:14;;;;;;;;;46.00;38.75;;;;;11.06;53.77;102475.22;5074559;28;45270;-66
2022/03/27 03:43:39;;;;;;;;;40.25;33.50;;;;;10.80;53.59;102453.50;5063450;28;45316;-66
2022/03/27 03:46:05;;;;;;;;;41.00;34.50;;;;;10.92;54.38;102477.09;5074841;28;45590;-66
2022/03/27 03:48:31;;;;;;;;;40.50;34.75;;;;;10.91;54.41;102479.91;5076659;28;47744;-66
2022/03/27 03:50:57;;;;;;;;;48.75;36.25;;;;;10.90;54.25;102480.88;5075366;27;45354;-67
2022/03/27 03:53:23;;;;;;;;;50.00;37.50;;;;;10.88;54.94;102477.41;5083860;28;45230;-66
2022/03/27 03:55:48;;;;;;;;;49.00;38.50;;;;;10.84;54.64;102478.59;5077456;28;45551;-66
2022/03/27 03:58:14;;;;;;;;;47.75;38.50;;;;;10.85;54.78;102480.34;5064494;28;46101;-66
2022/03/27 04:00:41;;;;;;;;;49.25;38.25;;;;;10.73;54.87;102456.75;5068801;28;45421;-66
2022/03/27 04:03:07;;;;;;;;;48.25;36.25;;;;;10.77;54.34;102470.00;5066964;28;45446;-66
2022/03/27 04:05:33;;;;;;;;;50.25;38.75;;;;;10.79;55.08;102478.06;5070102;28;45492;-66
2022/03/27 04:07:59;;;;;;;;;41.75;34.75;;;;;10.72;54.33;102472.19;5078272;28;45461;-66
2022/03/27 04:10:25;;;;;;;;;44.00;34.00;;;;;10.69;55.10;102477.81;5076607;28;45355;-66
2022/03/27 04:12:50;;;;;;;;;44.00;35.25;;;;;10.70;55.03;102479.56;5066249;28;45254;-66
2022/03/27 04:15:16;;;;;;;;;43.75;36.25;;;;;10.69;54.13;102469.66;5070931;28;45435;-66
2022/03/27 04:17:45;;;;;;;;;48.50;38.50;;;;;10.70;54.87;102473.25;5069803;28;45551;-67
2022/03/27 04:20:12;;;;;;;;;42.75;35.75;;;;;10.61;55.58;102479.31;5065164;28;45453;-66
2022/03/27 04:22:39;;;;;;;;;47.50;36.75;;;;;10.51;55.84;102476.41;5063559;28;45372;-66
2022/03/27 04:25:05;;;;;;;;;38.50;36.00;;;;;10.54;55.13;102482.47;5065458;28;45306;-66
2022/03/27 04:27:31;;;;;;;;;51.50;36.50;;;;;10.56;55.99;102479.66;5081010;27;47567;-66
2022/03/27 04:29:57;;;;;;;;;42.50;35.75;;;;;10.54;55.32;102479.75;5076429;28;45373;-66
2022/03/27 04:32:22;;;;;;;;;41.50;35.50;;;;;10.57;55.31;102478.69;5070131;28;45341;-66
2022/03/27 04:34:50;;;;;;;;;52.75;38.25;;;;;10.57;55.44;102472.38;5069567;28;45464;-66
2022/03/27 04:37:16;;;;;;;;;46.00;38.25;;;;;10.54;55.76;102485.19;5081500;28;45551;-66
2022/03/27 04:39:41;;;;;;;;;43.00;35.50;;;;;10.58;55.21;102482.28;5083870;28;45384;-66
2022/03/27 04:42:07;;;;;;;;;38.75;33.75;;;;;10.60;55.40;102494.75;5079846;28;45396;-66
2022/03/27 04:44:32;;;;;;;;;44.50;35.50;;;;;10.53;55.18;102483.44;5073819;28;45402;-66
2022/03/27 04:46:58;;;;;;;;;41.50;33.00;;;;;10.57;55.38;102486.84;5078148;28;45289;-66
2022/03/27 04:49:23;;;;;;;;;76.75;59.50;;;;;10.50;55.62;102488.25;5071736;28;45357;-66
2022/03/27 04:51:49;;;;;;;;;46.25;36.00;;;;;10.45;56.01;102496.69;5078404;28;45475;-67
2022/03/27 04:54:14;;;;;;;;;46.75;34.00;;;;;10.46;55.85;102494.84;5072248;28;45422;-66
2022/03/27 04:56:39;;;;;;;;;48.75;36.75;;;;;10.44;55.91;102494.09;5078101;28;46503;-66
2022/03/27 04:59:05;;;;;;;;;44.25;36.50;;;;;10.45;56.35;102495.81;5075730;28;45235;-65
2022/03/27 05:01:30;;;;;;;;;42.25;35.25;;;;;10.45;55.62;102487.66;5079330;28;45465;-66
2022/03/27 05:03:55;;;;;;;;;43.75;37.25;;;;;10.46;56.25;102492.13;5068516;28;45441;-66
2022/03/27 05:06:21;;;;;;;;;46.75;34.75;;;;;10.42;56.47;102490.63;5076466;28;47295;-66
2022/03/27 05:08:46;;;;;;;;;42.50;37.00;;;;;10.33;56.27;102491.22;5069028;28;45404;-66
2022/03/27 05:11:12;;;;;;;;;40.50;34.00;;;;;10.33;56.15;102493.94;5075786;28;45850;-66
2022/03/27 05:13:37;;;;;;;;;36.50;34.75;;;;;10.35;56.11;102501.03;5084045;27;45280;-66
2022/03/27 05:16:03;;;;;;;;;44.50;38.25;;;;;10.33;56.54;102502.97;5080081;28;46359;-66
2022/03/27 05:18:28;;;;;;;;;45.25;38.50;;;;;10.26;56.83;102501.66;5071286;28;45532;-66
2022/03/27 05:20:54;;;;;;;;;38.00;34.75;;;;;10.28;56.71;102510.56;5082189;28;45386;-66
2022/03/27 05:23:19;;;;;;;;;41.75;30.25;;;;;10.23;56.75;102503.72;5085321;28;45570;-65
2022/03/27 05:25:50;;;;;;;;;52.50;39.00;;;;;10.16;57.53;102511.34;5080470;28;47255;-66
2022/03/27 05:28:16;;;;;;;;;48.75;37.00;;;;;10.13;57.39;102506.13;5094623;27;45365;-65
2022/03/27 05:30:43;;;;;;;;;41.75;35.00;;;;;10.14;57.37;102508.75;5082010;27;45429;-66
2022/03/27 05:33:08;;;;;;;;;45.00;36.00;;;;;10.15;57.50;102510.47;5078383;28;45755;-66
2022/03/27 05:35:34;;;;;;;;;44.25;36.75;;;;;10.14;57.29;102508.75;5078864;28;46856;-66
2022/03/27 05:38:00;;;;;;;;;33.00;28.75;;;;;10.21;56.83;102513.81;5076368;28;45400;-66
2022/03/27 05:40:27;;;;;;;;;37.00;35.00;;;;;10.22;57.08;102518.28;5076559;28;45458;-67
2022/03/27 05:42:53;;;;;;;;;38.50;29.25;;;;;10.17;56.77;102513.13;5076384;27;45484;-67
2022/03/27 05:45:19;;;;;;;;;34.50;30.25;;;;;10.16;57.20;102514.94;5077652;28;45553;-67
2022/03/27 05:47:45;;;;;;;;;39.75;32.50;;;;;10.18;57.09;102519.44;5073623;28;45622;-66
2022/03/27 05:50:13;;;;;;;;;47.50;37.00;;;;;10.16;57.43;102514.94;5071401;28;45550;-67
2022/03/27 05:52:38;;;;;;;;;33.00;26.50;;;;;10.14;57.51;102519.63;5070381;28;45476;-67
2022/03/27 05:55:05;;;;;;;;;46.25;37.75;;;;;10.16;57.25;102509.50;5069587;28;45379;-67
2022/03/27 05:57:30;;;;;;;;;36.50;32.00;;;;;10.21;57.67;102519.25;5071364;27;45383;-67
2022/03/27 05:59:56;;;;;;;;;48.75;35.75;;;;;10.21;56.99;102511.09;5076308;28;45430;-66
2022/03/27 06:02:21;;;;;;;;;37.50;33.00;;;;;10.27;56.97;102524.25;5068001;28;45310;-67
2022/03/27 06:04:46;;;;;;;;;43.75;36.00;;;;;10.39;56.82;102524.28;5071507;28;46036;-67
2022/03/27 06:07:12;;;;;;;;;39.50;34.00;;;;;10.48;56.75;102533.66;5073989;28;45262;-66
2022/03/27 06:09:37;;;;;;;;;39.00;35.00;;;;;10.49;56.08;102521.81;5078942;28;45341;-66
2022/03/27 06:12:04;;;;;;;;;51.75;35.25;;;;;10.53;56.33;102526.94;5074212;28;45587;-66
2022/03/27 06:14:30;;;;;;;;;35.25;31.25;;;;;10.55;55.78;102532.28;5067054;28;46736;-67
2022/03/27 06:16:56;;;;;;;;;39.75;36.25;;;;;10.59;55.79;102527.50;5073770;28;45316;-67
2022/03/27 06:19:22;;;;;;;;;44.75;35.75;;;;;10.64;55.54;102522.63;5081099;28;45494;-67
2022/03/27 06:21:47;;;;;;;;;40.00;36.00;;;;;10.71;56.03;102535.69;5066442;28;45503;-67
2022/03/27 06:24:13;;;;;;;;;37.50;34.25;;;;;10.78;54.96;102526.13;5077085;28;48052;-66
2022/03/27 06:26:40;;;;;;;;;41.50;34.75;;;;;11.11;55.27;102541.91;5073726;28;45278;-67
2022/03/27 06:29:05;;;;;;;;;45.00;36.00;;;;;11.72;53.09;102540.25;5090322;27;45263;-67
2022/03/27 06:31:31;;;;;;;;;42.25;36.25;;;;;12.09;52.53;102541.16;5075581;28;45306;-67
2022/03/27 06:33:57;;;;;;;;;40.00;33.50;;;;;11.91;52.40;102548.81;5064597;28;46462;-67
2022/03/27 06:36:23;;;;;;;;;46.25;33.50;;;;;11.71;52.21;102528.47;5091025;27;45468;-64
2022/03/27 06:38:48;;;;;;;;;40.50;36.75;;;;;11.67;52.69;102537.88;5075138;28;45649;-66
2022/03/27 06:41:14;;;;;;;;;45.25;37.25;;;;;11.67;53.06;102545.16;5080718;27;45363;-67
2022/03/27 06:43:40;;;;;;;;;36.75;29.75;;;;;11.66;53.21;102547.00;5064115;28;46596;-67
2022/03/27 06:46:06;;;;;;;;;47.25;34.00;;;;;11.73;53.03;102541.09;5075136;28;45554;-67
2022/03/27 06:48:32;;;;;;;;;31.75;29.50;;;;;11.73;52.85;102531.09;5064596;28;45379;-67
2022/03/27 06:50:58;;;;;;;;;52.75;39.50;;;;;11.77;53.33;102548.97;5075744;28;45250;-67
2022/03/27 06:53:24;;;;;;;;;43.25;33.00;;;;;12.30;52.65;102531.34;5063952;28;46344;-67
2022/03/27 06:55:51;;;;;;;;;37.25;29.75;;;;;12.77;50.45;102537.75;5074823;28;45414;-66
2022/03/27 06:58:17;;;;;;;;;48.75;38.25;;;;;12.68;50.39;102533.00;5072778;28;45469;-64
2022/03/27 07:03:26;;;;;;;;;46.00;36.00;;;;;12.54;50.46;102522.28;5082353;28;45407;-67
2022/03/27 07:05:51;;;;;;;;;41.25;35.00;;;;;12.51;50.78;102526.13;5076240;28;45317;-67
2022/03/27 07:08:22;;;;;;;;;34.50;33.00;;;;;12.57;50.74;102533.81;5066306;28;45414;-67
2022/03/27 07:10:49;;;;;;;;;47.00;35.25;;;;;12.51;50.71;102527.97;5076292;28;45514;-67
2022/03/27 07:13:16;;;;;;;;;42.50;32.50;;;;;12.60;50.82;102540.91;5063921;28;45405;-67
2022/03/27 07:15:43;;;;;;;;;50.50;35.75;;;;;12.65;50.79;102535.94;5072752;27;46326;-65
2022/03/27 07:18:10;;;;;;;;;50.25;36.00;;;;;12.74;50.76;102540.69;5065889;27;45586;-65
2022/03/27 07:20:37;;;;;;;;;41.75;35.25;;;;;12.80;50.13;102530.19;5074179;28;45192;-65
2022/03/27 07:23:09;;;;;;;;;46.50;36.50;;;;;12.88;50.13;102538.66;5063655;28;45397;-66
2022/03/27 07:25:35;;;;;;;;;49.25;40.25;;;;;12.91;50.22;102537.53;5072352;28;45501;-66
2022/03/27 07:28:03;;;;;;;;;40.50;35.50;;;;;12.97;49.81;102537.06;5076378;27;45439;-66
2022/03/27 07:30:29;;;;;;;;;35.25;33.00;;;;;13.03;49.12;102546.63;5080368;27;45736;-65
2022/03/27 07:32:54;;;;;;;;;40.00;35.75;;;;;12.99;49.59;102531.50;5079003;28;46317;-65
2022/03/27 07:35:20;;;;;;;;;42.50;35.75;;;;;13.01;48.90;102538.53;5068765;28;45388;-65
2022/03/27 07:37:46;;;;;;;;;39.25;33.50;;;;;12.98;49.42;102538.81;5079308;28;45412;-65
2022/03/27 07:40:13;;;;;;;;;43.25;32.75;;;;;12.99;49.12;102554.19;5076173;27;45400;-65
2022/03/27 07:42:42;;;;;;;;;39.00;34.25;;;;;12.98;49.68;102541.53;5068302;28;46653;-65
2022/03/27 07:45:09;;;;;;;;;39.25;35.00;;;;;13.06;49.57;102552.72;5072460;28;45730;-66
2022/03/27 07:47:36;;;;;;;;;42.50;35.00;;;;;13.14;49.10;102547.56;5069269;28;45362;-66
2022/03/27 07:50:02;;;;;;;;;42.50;35.00;;;;;13.17;48.72;102555.47;5067873;28;45321;-66
2022/03/27 07:52:27;;;;;;;;;39.25;34.75;;;;;13.27;48.73;102555.63;5070220;28;45389;-66
2022/03/27 07:54:53;;;;;;;;;37.25;33.75;;;;;13.23;49.09;102549.53;5065783;28;45503;-66
2022/03/27 07:57:20;;;;;;;;;39.25;30.75;;;;;13.35;48.81;102550.44;5071227;28;46108;-66
2022/03/27 07:59:47;;;;;;;;;39.75;34.25;;;;;13.49;48.64;102546.59;5071719;28;45469;-66
2022/03/27 08:02:12;;;;;;;;;41.50;34.25;;;;;13.58;48.65;102546.72;5071853;28;46154;-66
2022/03/27 08:04:38;;;;;;;;;45.00;34.75;;;;;13.69;48.32;102543.09;5068142;28;45476;-66
2022/03/27 08:07:03;;;;;;;;;37.25;34.00;;;;;13.74;48.12;102549.06;5071941;27;45253;-66
2022/03/27 08:09:29;;;;;;;;;43.50;35.50;;;;;13.92;48.27;102536.63;5079395;28;45533;-66
2022/03/27 08:11:55;;;;;;;;;39.75;35.75;;;;;14.37;47.53;102536.53;5071412;28;45853;-66
2022/03/27 08:14:24;;;;;;;;;38.00;31.00;;;;;14.79;46.73;102537.47;5065206;28;45384;-66
2022/03/27 08:16:50;;;;;;;;;45.25;34.25;;;;;15.17;46.29;102543.22;5071772;28;45523;-67
2022/03/27 08:19:15;;;;;;;;;34.50;30.25;;;;;15.50;45.17;102544.84;5067972;28;45416;-66
2022/03/27 08:21:40;;;;;;;;;40.00;33.50;;;;;15.56;44.65;102544.31;5063772;27;46616;-66
2022/03/27 08:24:06;;;;;;;;;33.00;31.00;;;;;15.54;44.12;102551.81;5063692;28;45314;-66
2022/03/27 08:29:15;;;;;;;;;37.75;32.25;;;;;16.20;42.68;102535.75;5086494;27;45428;-66
2022/03/27 08:31:41;;;;;;;;;38.00;34.50;;;;;16.46;42.54;102544.28;5073618;28;45226;-66
2022/03/27 08:34:06;;;;;;;;;36.50;30.50;;;;;16.79;43.31;102542.16;5065694;28;45428;-67
2022/03/27 08:36:32;;;;;;;;;24.25;22.00;;;;;16.88;41.04;102542.13;5073174;28;45297;-66
2022/03/27 08:38:57;;;;;;;;;42.75;30.75;;;;;16.97;41.23;102544.00;5065999;28;45406;-67
2022/03/27 08:41:22;;;;;;;;;38.00;31.50;;;;;17.15;41.34;102541.41;5073898;28;46253;-67
2022/03/27 08:43:58;;;;;;;;;41.25;31.00;;;;;17.15;40.21;102543.28;5073521;28;45381;-67
2022/03/27 08:46:24;;;;;;;;;33.00;30.75;;;;;17.44;40.79;102542.19;5073678;28;45355;-65
2022/03/27 08:48:50;;;;;;;;;39.00;30.00;;;;;17.73;39.92;102531.09;5062509;28;45355;-66
2022/03/27 08:51:41;;;;;;;;;39.50;34.00;;;;;17.93;38.53;102542.88;5066213;28;47686;-66
2022/03/27 08:54:12;;;;;;;;;38.00;33.00;;;;;17.65;38.26;102543.88;5063051;28;45357;-66
2022/03/27 08:56:38;;;;;;;;;43.25;32.00;;;;;17.57;38.17;102541.84;5071916;28;45353;-66
2022/03/27 08:59:13;;;;;;;;;34.25;31.50;;;;;17.28;38.35;102543.81;5068550;28;45255;-66
2022/03/27 09:01:39;;;;;;;;;37.25;30.75;;;;;17.80;38.42;102542.34;5067454;28;46970;-66
2022/03/27 09:04:05;;;;;;;;;36.50;31.50;;;;;18.09;38.48;102544.94;5062194;28;46032;-66
2022/03/27 09:06:30;;;;;;;;;20.50;18.75;;;;;17.97;37.84;102543.44;5069054;27;45299;-66
2022/03/27 09:08:56;;;;;;;;;32.75;30.75;;;;;18.53;36.56;102546.81;5062779;28;45264;-66
2022/03/27 09:11:25;;;;;;;;;30.75;29.50;;;;;18.85;37.22;102537.16;5073027;28;46618;-68
2022/03/27 09:13:52;;;;;;;;;39.50;31.75;;;;;18.70;36.12;102549.78;5061681;28;45420;-67
2022/03/27 09:16:18;;;;;;;;;39.00;31.25;;;;;19.05;36.69;102550.59;5064338;28;45270;-66
2022/03/27 09:18:49;;;;;;;;;38.00;32.00;;;;;19.40;35.89;102546.88;5064655;28;45487;-66
2022/03/27 09:21:16;;;;;;;;;35.25;30.50;;;;;19.35;35.14;102546.50;5070492;28;46091;-66
2022/03/27 09:23:41;;;;;;;;;42.00;32.75;;;;;19.54;35.15;102561.97;5084748;27;45459;-66
2022/03/27 09:26:13;;;;;;;;;35.25;29.75;;;;;19.96;34.76;102553.75;5077639;28;45402;-66
2022/03/27 09:28:44;;;;;;;;;30.75;26.00;;;;;20.39;34.78;102563.75;5087057;27;45505;-66
2022/03/27 09:31:18;;;;;;;;;34.50;31.00;;;;;20.51;32.72;102548.59;5072436;27;45319;-66
2022/03/27 09:34:03;;;;;;;;;30.75;25.25;;;;;20.71;33.23;102551.03;5085797;28;45310;-66
2022/03/27 09:36:39;;;;;;;;;25.75;25.00;;;;;20.83;32.83;102549.66;5076589;28;45476;-65
2022/03/27 09:39:13;;;;;;;;;28.25;23.25;;;;;20.75;33.05;102539.47;5083794;27;45226;-66
2022/03/27 09:41:47;;;;;;;;;34.50;25.50;;;;;20.84;32.95;102546.72;5073182;27;48164;-65
2022/03/27 09:44:23;;;;;;;;;31.50;29.50;;;;;20.82;32.11;102550.72;5065771;28;45374;-66
2022/03/27 09:46:53;;;;;;;;;24.75;21.00;;;;;20.81;32.64;102544.31;5074211;28;45488;-66
2022/03/27 09:49:39;;;;;;;;;29.50;23.75;;;;;20.99;32.84;102545.00;5068082;28;45602;-66
2022/03/27 09:52:15;;;;;;;;;23.00;23.00;;;;;21.24;33.22;102543.13;5069243;28;47536;-66
2022/03/27 09:55:07;;;;;;;;;30.75;25.25;;;;;21.33;32.23;102539.28;5070071;28;45438;-66
2022/03/27 09:57:37;;;;;;;;;34.50;28.25;;;;;21.37;30.87;102531.50;5075275;27;45494;-67
2022/03/27 10:00:20;;;;;;;;;29.25;25.25;;;;;21.47;32.06;102534.09;5069492;28;45408;-66
2022/03/27 10:02:48;;;;;;;;;39.75;30.75;;;;;21.43;30.55;102528.03;5077765;28;48122;-66
2022/03/27 10:05:17;;;;;;;;;30.25;26.50;;;;;21.40;31.63;102528.41;5071543;28;45381;-67
2022/03/27 10:07:51;;;;;;;;;31.00;25.50;;;;;21.81;31.50;102534.66;5078419;28;45508;-67
2022/03/27 10:10:19;;;;;;;;;28.50;22.75;;;;;22.07;31.91;102528.84;5079171;28;45397;-66
2022/03/27 10:12:48;;;;;;;;;25.50;21.00;;;;;22.24;30.54;102530.50;5069630;28;45532;-67
2022/03/27 10:15:19;;;;;;;;;28.25;25.50;;;;;22.22;30.04;102520.66;5067066;28;45407;-67
2022/03/27 10:17:52;;;;;;;;;30.00;27.00;;;;;22.15;29.94;102523.28;5067601;28;45407;-67
2022/03/27 10:20:21;;;;;;;;;32.25;26.25;;;;;22.32;29.38;102515.75;5074128;28;45396;-68
2022/03/27 10:23:09;;;;;;;;;34.25;30.25;;;;;22.39;30.32;102519.50;5067614;27;46133;-68
2022/03/27 10:25:40;;;;;;;;;24.00;20.25;;;;;22.41;29.43;102515.53;5077185;28;45793;-68
2022/03/27 10:28:07;;;;;;;;;33.00;27.25;;;;;22.32;29.29;102512.97;5078556;27;45453;-68
2022/03/27 10:30:33;;;;;;;;;29.25;29.25;;;;;22.33;29.47;102510.03;5082171;27;46197;-68
2022/03/27 10:33:01;;;;;;;;;31.75;27.75;;;;;22.22;29.71;102496.59;5064118;28;45526;-68
2022/03/27 10:35:52;;;;;;;;;29.50;26.50;;;;;22.28;29.88;102495.03;5070362;28;45306;-68
2022/03/27 10:38:42;;;;;;;;;36.00;31.50;;;;;22.42;28.86;102502.53;5065001;28;45270;-68
2022/03/27 10:41:13;;;;;;;;;37.75;30.25;;;;;22.55;28.80;102497.25;5076027;28;45514;-68
2022/03/27 10:43:51;;;;;;;;;45.50;33.75;;;;;22.79;29.07;102493.44;5064161;28;46013;-68
2022/03/27 10:46:21;;;;;;;;;28.75;26.25;;;;;22.90;29.14;102481.91;5073050;28;45390;-68
2022/03/27 10:48:49;;;;;;;;;26.00;19.00;;;;;22.93;28.75;102484.31;5079174;28;45452;-68
2022/03/27 10:51:24;;;;;;;;;34.50;31.00;;;;;22.21;29.07;102474.66;5076633;28;45416;-68
2022/03/27 10:54:07;;;;;;;;;47.75;34.75;;;;;22.35;28.89;102471.94;5063589;28;45415;-68
2022/03/27 10:56:43;;;;;;;;;75.75;62.50;;;;;22.73;29.18;102474.75;5063798;28;45405;-67
2022/03/27 10:59:13;;;;;;;;;25.25;18.00;;;;;22.48;27.77;102466.66;5071350;28;45362;-66
2022/03/27 11:01:41;;;;;;;;;21.50;18.25;;;;;22.13;28.78;102468.13;5074298;28;45487;-68
2022/03/27 11:04:37;;;;;;;;;35.25;30.75;;;;;22.56;28.35;102459.31;5064385;28;45400;-68
2022/03/27 11:07:15;;;;;;;;;32.00;28.50;;;;;22.97;28.18;102462.59;5067711;28;45619;-68
2022/03/27 11:09:40;;;;;;;;;33.50;27.75;;;;;23.26;28.68;102462.66;5066248;28;45187;-68
2022/03/27 11:12:24;;;;;;;;;36.00;31.50;;;;;23.61;28.33;102456.34;5072646;28;45630;-68
2022/03/27 11:14:52;;;;;;;;;33.75;25.00;;;;;23.77;27.56;102457.19;5066071;28;45719;-68
2022/03/27 11:17:59;;;;;;;;;42.25;34.25;;;;;23.56;26.53;102449.66;5074841;28;45199;-68
2022/03/27 11:20:24;;;;;;;;;31.50;28.25;;;;;23.79;27.61;102455.09;5065904;28;45567;-68